Capo Vado — IPWV — position and weather

sailwx.info

Track history (hours):
 
Tides and Currents Weather Stations Pressure Air Temp Water Temp Dewpoint Dewpoint Depression Visibility Wind Speed Wind Dir Waves Ship Positions

Capo Vado

Last reported at 2015-Feb-01 11:15 UTC. Time now 2015-Feb-01 11:47 UTC.
Position N 44°18' E 008°29'.

Length 30 m.

Type: Tug. MMSI: 247228400.

Date/timePositionNaut miles runAvg speedWind from/ knotsBaromVisibWave heightAir tempDewpointWater temp
2015-Feb-01 11:15N 44°18' E 008°29'2 2.4
2015-Feb-01 10:18N 44°17' E 008°28'0 0.2
2015-Feb-01 09:19N 44°16' E 008°28'0 0.4
2015-Feb-01 08:33N 44°17' E 008°27'1 0.5
2015-Feb-01 07:27N 44°16' E 008°27'4 3.8
2015-Feb-01 06:30N 44°19' E 008°30'1 0.2
2015-Feb-01 02:30N 44°18' E 008°29'0 0.0
2015-Feb-01 01:27N 44°18' E 008°29'0 0.0
2015-Jan-31 23:33N 44°18' E 008°29'0 0.0
2015-Jan-31 20:18N 44°18' E 008°29'0 0.0
2015-Jan-31 19:33N 44°18' E 008°29'0 0.0
2015-Jan-31 15:27N 44°18' E 008°29'0 0.0
2015-Jan-31 11:15N 44°18' E 008°29'0 0.0
2015-Jan-31 03:24N 44°18' E 008°29'0 0.0
2015-Jan-31 02:24N 44°18' E 008°29'0 0.0
2015-Jan-31 01:18N 44°18' E 008°29'0 0.0
2015-Jan-31 00:21N 44°18' E 008°29'0 0.0
2015-Jan-30 23:18N 44°18' E 008°29'0 0.0
2015-Jan-30 22:15N 44°18' E 008°29'0 0.0
2015-Jan-30 15:33N 44°18' E 008°29'0 0.0
2015-Jan-30 11:33N 44°18' E 008°29'1 0.4
2015-Jan-30 09:33N 44°19' E 008°31'4 3.8
2015-Jan-30 08:33N 44°16' E 008°27'1 1.3
2015-Jan-30 07:33N 44°17' E 008°28'2 0.4
2015-Jan-30 02:24N 44°18' E 008°29'0 0.0
2015-Jan-30 01:33N 44°18' E 008°29'0 0.0
2015-Jan-30 00:30N 44°18' E 008°29'0 0.0
2015-Jan-29 23:12N 44°18' E 008°29'0 0.0
2015-Jan-29 19:33N 44°18' E 008°29'0 0.0
2015-Jan-29 15:33N 44°18' E 008°29'0 0.0
2015-Jan-29 14:27N 44°18' E 008°29'0 0.0
2015-Jan-29 11:33N 44°18' E 008°29'1 0.1
2015-Jan-29 04:31N 44°19' E 008°30'1 0.6
2015-Jan-29 03:25N 44°18' E 008°29'0 0.0
2015-Jan-29 00:28N 44°18' E 008°29'0 0.0
2015-Jan-28 23:25N 44°18' E 008°29'0 0.0
2015-Jan-28 19:28N 44°18' E 008°29'0 0.0
2015-Jan-28 18:25N 44°18' E 008°29'0 0.0
2015-Jan-28 16:04N 44°18' E 008°29'0 0.0
2015-Jan-28 15:31N 44°18' E 008°29'0 0.0
2015-Jan-28 14:17N 44°18' E 008°29'2 1.2
2015-Jan-28 12:26N 44°17' E 008°28'2 1.6
2015-Jan-28 11:06N 44°18' E 008°29'0 0.0
2015-Jan-28 07:30N 44°18' E 008°29'0 0.0
2015-Jan-28 06:03N 44°18' E 008°29'3 0.1
2015-Jan-26 05:32N 44°16' E 008°27'2 0.9
2015-Jan-26 03:09N 44°18' E 008°29'0 0.2
2015-Jan-26 02:30N 44°18' E 008°29'1 0.6
2015-Jan-26 01:32N 44°19' E 008°29'0 0.3
2015-Jan-26 00:17N 44°18' E 008°29'0 0.3
2015-Jan-25 23:17N 44°19' E 008°29'0 0.1
2015-Jan-25 22:29N 44°19' E 008°29'0 0.0
2015-Jan-25 19:17N 44°19' E 008°29'0 0.0
2015-Jan-25 14:11N 44°19' E 008°29'0 0.1
2015-Jan-25 11:26N 44°18' E 008°29'1 1.0
2015-Jan-25 10:34N 44°19' E 008°29'1 0.2
2015-Jan-25 08:04N 44°19' E 008°29'0 0.4
2015-Jan-25 07:31N 44°18' E 008°29'1 1.4
2015-Jan-25 06:33N 44°17' E 008°28'0 0.5
2015-Jan-25 05:29N 44°18' E 008°29'1 0.3
2015-Jan-25 03:30N 44°18' E 008°29'0 0.1
2015-Jan-25 02:30N 44°18' E 008°29'1 0.5
2015-Jan-25 01:24N 44°19' E 008°29'0 0.5
2015-Jan-25 00:32N 44°18' E 008°29'0 0.4
2015-Jan-24 23:23N 44°19' E 008°29'0 0.2
2015-Jan-24 21:20N 44°18' E 008°29'0 0.1
2015-Jan-24 19:14N 44°19' E 008°29'0 0.1
2015-Jan-24 17:17N 44°19' E 008°29'0 0.1
2015-Jan-24 16:17N 44°19' E 008°29'0 0.3
2015-Jan-24 15:32N 44°18' E 008°29'0 0.0
2015-Jan-24 11:29N 44°18' E 008°29'0 0.1
2015-Jan-24 09:14N 44°19' E 008°29'0 0.1
2015-Jan-24 07:32N 44°18' E 008°29'0 0.1
2015-Jan-24 06:14N 44°19' E 008°29'0 0.1
2015-Jan-24 04:17N 44°18' E 008°29'0 0.5
2015-Jan-24 03:32N 44°18' E 008°29'0 0.1
2015-Jan-24 02:32N 44°18' E 008°29'1 0.5
2015-Jan-24 01:32N 44°19' E 008°29'0 0.4
2015-Jan-24 00:29N 44°18' E 008°29'0 0.5
2015-Jan-23 23:29N 44°19' E 008°29'0 0.0
2015-Jan-23 19:32N 44°19' E 008°29'0 0.3
2015-Jan-23 18:31N 44°19' E 008°30'0 0.2
2015-Jan-23 16:15N 44°19' E 008°29'0 0.4
2015-Jan-23 15:33N 44°18' E 008°29'0 0.1
2015-Jan-23 12:26N 44°19' E 008°30'0 0.3
2015-Jan-23 11:27N 44°18' E 008°29'0 0.2
2015-Jan-23 10:15N 44°19' E 008°29'0 0.0
2015-Jan-23 08:33N 44°19' E 008°29'0 0.3
2015-Jan-23 07:30N 44°18' E 008°29'0 0.1
2015-Jan-23 06:09N 44°18' E 008°29'1 1.1
2015-Jan-23 05:22N 44°19' E 008°30'1 0.4
2015-Jan-23 03:25N 44°18' E 008°29'0 0.3
2015-Jan-23 02:31N 44°19' E 008°29'0 0.3
2015-Jan-23 01:31N 44°19' E 008°29'0 0.3
2015-Jan-23 00:08N 44°18' E 008°29'0 0.7
2015-Jan-22 23:32N 44°19' E 008°29'0 0.2
2015-Jan-22 21:24N 44°18' E 008°29'0 0.2
2015-Jan-22 19:33N 44°19' E 008°29'0 0.0
2015-Jan-22 14:15N 44°19' E 008°29'  
Track history (hours):
 
Tides and Currents Weather Stations Pressure Air Temp Water Temp Dewpoint Dewpoint Depression Visibility Wind Speed Wind Dir Waves Ship Positions

Capo Vado

Last reported at 2015-Feb-01 11:15 UTC. Time now 2015-Feb-01 11:47 UTC.
Position N 44°18' E 008°29'.

Length 30 m.

Type: Tug. MMSI: 247228400.

Date/timePositionNaut miles runAvg speedWind from/ knotsBaromVisibWave heightAir tempDewpointWater temp
2015-Feb-01 11:15N 44°18' E 008°29'2 2.4
2015-Feb-01 10:18N 44°17' E 008°28'0 0.2
2015-Feb-01 09:19N 44°16' E 008°28'0 0.4
2015-Feb-01 08:33N 44°17' E 008°27'1 0.5
2015-Feb-01 07:27N 44°16' E 008°27'4 3.8
2015-Feb-01 06:30N 44°19' E 008°30'1 0.2
2015-Feb-01 02:30N 44°18' E 008°29'0 0.0
2015-Feb-01 01:27N 44°18' E 008°29'0 0.0
2015-Jan-31 23:33N 44°18' E 008°29'0 0.0
2015-Jan-31 20:18N 44°18' E 008°29'0 0.0
2015-Jan-31 19:33N 44°18' E 008°29'0 0.0
2015-Jan-31 15:27N 44°18' E 008°29'0 0.0
2015-Jan-31 11:15N 44°18' E 008°29'0 0.0
2015-Jan-31 03:24N 44°18' E 008°29'0 0.0
2015-Jan-31 02:24N 44°18' E 008°29'0 0.0
2015-Jan-31 01:18N 44°18' E 008°29'0 0.0
2015-Jan-31 00:21N 44°18' E 008°29'0 0.0
2015-Jan-30 23:18N 44°18' E 008°29'0 0.0
2015-Jan-30 22:15N 44°18' E 008°29'0 0.0
2015-Jan-30 15:33N 44°18' E 008°29'0 0.0
2015-Jan-30 11:33N 44°18' E 008°29'1 0.4
2015-Jan-30 09:33N 44°19' E 008°31'4 3.8
2015-Jan-30 08:33N 44°16' E 008°27'1 1.3
2015-Jan-30 07:33N 44°17' E 008°28'2 0.4
2015-Jan-30 02:24N 44°18' E 008°29'0 0.0
2015-Jan-30 01:33N 44°18' E 008°29'0 0.0
2015-Jan-30 00:30N 44°18' E 008°29'0 0.0
2015-Jan-29 23:12N 44°18' E 008°29'0 0.0
2015-Jan-29 19:33N 44°18' E 008°29'0 0.0
2015-Jan-29 15:33N 44°18' E 008°29'0 0.0
2015-Jan-29 14:27N 44°18' E 008°29'0 0.0
2015-Jan-29 11:33N 44°18' E 008°29'1 0.1
2015-Jan-29 04:31N 44°19' E 008°30'1 0.6
2015-Jan-29 03:25N 44°18' E 008°29'0 0.0
2015-Jan-29 00:28N 44°18' E 008°29'0 0.0
2015-Jan-28 23:25N 44°18' E 008°29'0 0.0
2015-Jan-28 19:28N 44°18' E 008°29'0 0.0
2015-Jan-28 18:25N 44°18' E 008°29'0 0.0
2015-Jan-28 16:04N 44°18' E 008°29'0 0.0
2015-Jan-28 15:31N 44°18' E 008°29'0 0.0
2015-Jan-28 14:17N 44°18' E 008°29'2 1.2
2015-Jan-28 12:26N 44°17' E 008°28'2 1.6
2015-Jan-28 11:06N 44°18' E 008°29'0 0.0
2015-Jan-28 07:30N 44°18' E 008°29'0 0.0
2015-Jan-28 06:03N 44°18' E 008°29'3 0.1
2015-Jan-26 05:32N 44°16' E 008°27'2 0.9
2015-Jan-26 03:09N 44°18' E 008°29'0 0.2
2015-Jan-26 02:30N 44°18' E 008°29'1 0.6
2015-Jan-26 01:32N 44°19' E 008°29'0 0.3
2015-Jan-26 00:17N 44°18' E 008°29'0 0.3
2015-Jan-25 23:17N 44°19' E 008°29'0 0.1
2015-Jan-25 22:29N 44°19' E 008°29'0 0.0
2015-Jan-25 19:17N 44°19' E 008°29'0 0.0
2015-Jan-25 14:11N 44°19' E 008°29'0 0.1
2015-Jan-25 11:26N 44°18' E 008°29'1 1.0
2015-Jan-25 10:34N 44°19' E 008°29'1 0.2
2015-Jan-25 08:04N 44°19' E 008°29'0 0.4
2015-Jan-25 07:31N 44°18' E 008°29'1 1.4
2015-Jan-25 06:33N 44°17' E 008°28'0 0.5
2015-Jan-25 05:29N 44°18' E 008°29'1 0.3
2015-Jan-25 03:30N 44°18' E 008°29'0 0.1
2015-Jan-25 02:30N 44°18' E 008°29'1 0.5
2015-Jan-25 01:24N 44°19' E 008°29'0 0.5
2015-Jan-25 00:32N 44°18' E 008°29'0 0.4
2015-Jan-24 23:23N 44°19' E 008°29'0 0.2
2015-Jan-24 21:20N 44°18' E 008°29'0 0.1
2015-Jan-24 19:14N 44°19' E 008°29'0 0.1
2015-Jan-24 17:17N 44°19' E 008°29'0 0.1
2015-Jan-24 16:17N 44°19' E 008°29'0 0.3
2015-Jan-24 15:32N 44°18' E 008°29'0 0.0
2015-Jan-24 11:29N 44°18' E 008°29'0 0.1
2015-Jan-24 09:14N 44°19' E 008°29'0 0.1
2015-Jan-24 07:32N 44°18' E 008°29'0 0.1
2015-Jan-24 06:14N 44°19' E 008°29'0 0.1
2015-Jan-24 04:17N 44°18' E 008°29'0 0.5
2015-Jan-24 03:32N 44°18' E 008°29'0 0.1
2015-Jan-24 02:32N 44°18' E 008°29'1 0.5
2015-Jan-24 01:32N 44°19' E 008°29'0 0.4
2015-Jan-24 00:29N 44°18' E 008°29'0 0.5
2015-Jan-23 23:29N 44°19' E 008°29'0 0.0
2015-Jan-23 19:32N 44°19' E 008°29'0 0.3
2015-Jan-23 18:31N 44°19' E 008°30'0 0.2
2015-Jan-23 16:15N 44°19' E 008°29'0 0.4
2015-Jan-23 15:33N 44°18' E 008°29'0 0.1
2015-Jan-23 12:26N 44°19' E 008°30'0 0.3
2015-Jan-23 11:27N 44°18' E 008°29'0 0.2
2015-Jan-23 10:15N 44°19' E 008°29'0 0.0
2015-Jan-23 08:33N 44°19' E 008°29'0 0.3
2015-Jan-23 07:30N 44°18' E 008°29'0 0.1
2015-Jan-23 06:09N 44°18' E 008°29'1 1.1
2015-Jan-23 05:22N 44°19' E 008°30'1 0.4
2015-Jan-23 03:25N 44°18' E 008°29'0 0.3
2015-Jan-23 02:31N 44°19' E 008°29'0 0.3
2015-Jan-23 01:31N 44°19' E 008°29'0 0.3
2015-Jan-23 00:08N 44°18' E 008°29'0 0.7
2015-Jan-22 23:32N 44°19' E 008°29'0 0.2
2015-Jan-22 21:24N 44°18' E 008°29'0 0.2
2015-Jan-22 19:33N 44°19' E 008°29'0 0.0
2015-Jan-22 14:15N 44°19' E 008°29'  

Dump ship's entire track history